Time;durP1;ratioP1;P1;durP2;ratioP2;P2;SDS_P1;SDS_P2;PMS_P1;PMS_P2;Temp;Humidity;BMP_temperature;BMP_pressure;BME280_temperature;BME280_humidity;BME280_pressure;Samples;Min_cycle;Max_cycle;Signal;HPM_P1;HPM_P2
2021/03/01 00:00:28;;;;;;;31.05;16.85;;;;;;;;;;5032553;28;20029;-73
2021/03/01 00:02:55;;;;;;;32.25;16.23;;;;;;;;;;5033055;28;20083;-71
2021/03/01 00:05:21;;;;;;;31.17;17.92;;;;;;;;;;5030254;28;20040;-72
2021/03/01 00:07:47;;;;;;;32.20;17.83;;;;;;;;;;5033763;28;20032;-72
2021/03/01 00:10:13;;;;;;;36.75;18.55;;;;;;;;;;5031603;28;20363;-72
2021/03/01 00:12:40;;;;;;;37.92;19.83;;;;;;;;;;5033031;28;20025;-73
2021/03/01 00:15:06;;;;;;;38.22;20.60;;;;;;;;;;5034929;28;20021;-73
2021/03/01 00:17:33;;;;;;;32.25;17.33;;;;;;;;;;5031450;28;20079;-73
2021/03/01 00:19:58;;;;;;;24.60;16.27;;;103.30;2099.20;;;;;;5033862;28;20390;-73
2021/03/01 00:22:24;;;;;;;27.52;15.85;;;103.10;2201.60;;;;;;5040624;28;20029;-71
2021/03/01 00:24:50;;;;;;;26.30;15.27;;;102.90;2150.40;;;;;;5034635;28;20040;-73
2021/03/01 00:27:15;;;;;;;28.95;16.40;;;102.90;2099.20;;;;;;5039679;28;20037;-71
2021/03/01 00:29:41;;;;;;;25.60;15.77;;;102.80;2150.40;;;;;;5033822;28;20474;-73
2021/03/01 00:32:07;;;;;;;21.08;14.70;;;102.80;2150.40;;;;;;5034166;28;20487;-75
2021/03/01 00:34:32;;;;;;;24.55;14.98;;;102.80;2201.60;;;;;;5034309;28;20033;-73
2021/03/01 00:36:58;;;;;;;30.45;14.90;;;102.80;2201.60;;;;;;5033713;28;20471;-71
2021/03/01 00:39:24;;;;;;;22.05;13.90;;;102.70;2176.00;;;;;;5033570;28;20483;-72
2021/03/01 00:41:49;;;;;;;26.25;15.77;;;102.70;2176.00;;;;;;5033509;28;20111;-73
2021/03/01 00:44:15;;;;;;;24.17;15.07;;;102.70;2176.00;;;;;;5040266;28;20486;-74
2021/03/01 00:46:41;;;;;;;27.98;16.60;;;102.60;2201.60;;;;;;5033943;28;20033;-73
2021/03/01 00:49:07;;;;;;;25.77;15.63;;;102.60;2176.00;;;;;;5032345;28;20038;-73
2021/03/01 00:51:32;;;;;;;25.17;16.23;;;102.60;2201.60;;;;;;5042354;28;20048;-73
2021/03/01 00:53:58;;;;;;;24.45;15.10;;;102.60;2176.00;;;;;;5040417;28;20029;-74
2021/03/01 00:56:24;;;;;;;23.15;14.80;;;102.60;2227.20;;;;;;5032939;28;20025;-73
2021/03/01 00:58:49;;;;;;;24.15;16.65;;;102.60;2201.60;;;;;;5034080;28;20075;-73
2021/03/01 01:01:15;;;;;;;23.35;16.20;;;102.60;2227.20;;;;;;5033281;28;20060;-71
2021/03/01 01:03:41;;;;;;;20.52;14.35;;;102.60;2227.20;;;;;;5034092;28;20032;-72
2021/03/01 01:06:07;;;;;;;25.27;15.43;;;102.50;2227.20;;;;;;5032513;28;20034;-70
2021/03/01 01:08:33;;;;;;;27.35;17.00;;;102.60;2227.20;;;;;;5032951;28;20074;-73
2021/03/01 01:10:58;;;;;;;29.48;17.25;;;102.60;2227.20;;;;;;5038374;28;20059;-72
2021/03/01 01:13:24;;;;;;;30.50;16.02;;;102.50;2227.20;;;;;;5035147;28;20029;-73
2021/03/01 01:15:50;;;;;;;25.25;14.80;;;102.50;2227.20;;;;;;5032869;28;20495;-71
2021/03/01 01:18:16;;;;;;;24.52;15.23;;;102.50;2227.20;;;;;;5038141;28;20029;-72
2021/03/01 01:20:41;;;;;;;25.67;15.35;;;102.50;2227.20;;;;;;5039485;28;20032;-73
2021/03/01 01:23:07;;;;;;;22.35;14.63;;;;;;;;;;5032450;28;20386;-72
2021/03/01 01:25:33;;;;;;;24.73;15.88;;;;;;;;;;5032651;28;20039;-72
2021/03/01 01:27:59;;;;;;;26.25;16.75;;;;;;;;;;5040070;28;20053;-72
2021/03/01 01:30:26;;;;;;;20.88;14.13;;;;;;;;;;5031379;28;20037;-70
2021/03/01 01:32:52;;;;;;;19.55;14.00;;;;;;;;;;5033021;28;20025;-71
2021/03/01 01:35:19;;;;;;;21.80;14.10;;;;;;;;;;5036627;28;20389;-73
2021/03/01 01:37:45;;;;;;;19.02;12.85;;;;;;;;;;5030752;28;20087;-72
2021/03/01 01:40:12;;;;;;;19.42;13.45;;;;;;;;;;5033843;28;20026;-72
2021/03/01 01:42:39;;;;;;;24.55;15.27;;;;;;;;;;5038509;28;20052;-72
2021/03/01 01:45:09;;;;;;;22.00;14.50;;;;;;;;;;5034134;28;20021;-72
2021/03/01 01:47:35;;;;;;;21.05;14.32;;;;;;;;;;5038821;28;20116;-71
2021/03/01 01:50:01;;;;;;;23.13;14.32;;;;;;;;;;5040853;28;20048;-73
2021/03/01 01:52:27;;;;;;;22.50;14.40;;;;;;;;;;5034280;28;20385;-73
2021/03/01 01:54:53;;;;;;;23.13;14.00;;;;;;;;;;5032935;28;20380;-74
2021/03/01 01:57:19;;;;;;;23.17;13.77;;;;;;;;;;5032332;28;20079;-74
2021/03/01 01:59:45;;;;;;;19.25;13.85;;;;;;;;;;5032289;28;20021;-73
2021/03/01 02:02:12;;;;;;;21.20;13.95;;;;;;;;;;5032635;28;20108;-74
2021/03/01 02:04:40;;;;;;;19.35;13.18;;;;;;;;;;5031378;28;20041;-71
2021/03/01 02:07:09;;;;;;;20.88;13.73;;;;;;;;;;5032469;28;20025;-74
2021/03/01 02:09:47;;;;;;;22.17;14.60;;;;;;;;;;5031494;28;20037;-70
2021/03/01 02:12:50;;;;;;;21.55;14.93;;;77.60;2227.20;;;;;;5037633;28;20029;-73
2021/03/01 02:15:25;;;;;;;23.67;16.08;;;77.50;2227.20;;;;;;5031271;28;20036;-73
2021/03/01 02:17:51;;;;;;;25.70;16.58;;;77.40;2227.20;;;;;;5032464;28;20097;-73
2021/03/01 02:20:16;;;;;;;28.75;17.05;;;77.30;2227.20;;;;;;5032375;28;20112;-73
2021/03/01 02:22:42;;;;;;;28.55;17.38;;;77.30;2227.20;;;;;;5034222;28;20398;-72
2021/03/01 02:25:10;;;;;;;33.13;18.65;;;77.30;2227.20;;;;;;5036872;28;20029;-73
2021/03/01 02:27:54;;;;;;;40.45;19.83;;;77.30;2227.20;;;;;;5031695;28;20022;-72
2021/03/01 02:30:30;;;;;;;40.85;20.63;;;77.30;2227.20;;;;;;5027977;28;20128;-72
2021/03/01 02:33:23;;;;;;;34.20;18.90;;;77.30;2227.20;;;;;;5032965;28;20018;-72
2021/03/01 02:36:00;;;;;;;31.85;18.05;;;77.20;2227.20;;;;;;5034550;28;20037;-71
2021/03/01 02:38:32;;;;;;;35.63;18.55;;;77.20;2227.20;;;;;;5033989;28;20040;-74
2021/03/01 02:40:59;;;;;;;30.58;17.52;;;77.20;2227.20;;;;;;5036464;28;20091;-73
2021/03/01 02:43:27;;;;;;;27.92;16.75;;;77.20;2227.20;;;;;;5031492;28;20108;-71
2021/03/01 02:45:55;;;;;;;25.33;15.95;;;77.20;2227.20;;;;;;5031486;28;20037;-73
2021/03/01 02:48:22;;;;;;;26.42;16.33;;;77.20;2227.20;;;;;;5039533;28;20034;-73
2021/03/01 02:50:49;;;;;;;29.65;17.17;;;77.10;2227.20;;;;;;5032890;28;20029;-74
2021/03/01 02:53:18;;;;;;;25.33;15.98;;;77.10;2227.20;;;;;;5031135;28;20053;-73
2021/03/01 02:55:46;;;;;;;28.88;16.20;;;77.10;2227.20;;;;;;5036917;28;20103;-71
2021/03/01 02:58:15;;;;;;;26.85;16.20;;;77.10;2227.20;;;;;;5031386;28;20026;-72
2021/03/01 03:00:42;;;;;;;24.40;15.98;;;77.10;2227.20;;;;;;5032232;28;20022;-73
2021/03/01 03:03:11;;;;;;;21.02;15.63;;;77.10;2227.20;;;;;;5030480;28;20108;-73
2021/03/01 03:05:42;;;;;;;27.45;17.05;;;77.10;2227.20;;;;;;5030306;28;20153;-71
2021/03/01 03:08:10;;;;;;;29.20;18.63;;;77.00;2227.20;;;;;;5023710;28;20544;-71
2021/03/01 03:10:38;;;;;;;30.98;19.23;;;77.00;2227.20;;;;;;5030726;28;20495;-72
2021/03/01 03:13:05;;;;;;;29.15;17.15;;;77.00;2227.20;;;;;;5030188;28;20036;-72
2021/03/01 03:15:33;;;;;;;27.02;16.27;;;77.00;2227.20;;;;;;5030744;28;20096;-73
2021/03/01 03:18:00;;;;;;;25.05;15.65;;;77.00;2227.20;;;;;;5029143;28;20021;-72
2021/03/01 03:20:26;;;;;;;28.17;18.55;;;77.00;2227.20;;;;;;5031922;28;20475;-72
2021/03/01 03:22:52;;;;;;;26.55;18.63;;;76.90;2227.20;;;;;;5030775;28;20113;-71
2021/03/01 03:25:18;;;;;;;29.30;18.65;;;52.10;2227.20;;;;;;5031068;28;20087;-71
2021/03/01 03:27:44;;;;;;;28.35;17.40;;;76.90;2227.20;;;;;;5037454;28;20032;-71
2021/03/01 03:30:16;;;;;;;28.67;16.08;;;76.90;2227.20;;;;;;5030907;28;20038;-71
2021/03/01 03:32:42;;;;;;;26.77;17.52;;;76.90;2227.20;;;;;;5030941;28;20029;-73
2021/03/01 03:35:11;;;;;;;31.77;19.17;;;76.80;2227.20;;;;;;5032342;28;20469;-73
2021/03/01 03:37:50;;;;;;;30.50;18.55;;;76.80;2227.20;;;;;;5035161;28;20025;-74
2021/03/01 03:40:19;;;;;;;31.13;19.00;;;76.80;2227.20;;;;;;5039105;28;20041;-73
2021/03/01 03:42:45;;;;;;;28.75;18.65;;;76.80;2227.20;;;;;;5033684;28;20499;-73
2021/03/01 03:45:15;;;;;;;34.38;21.42;;;76.80;2227.20;;;;;;5040956;28;20033;-72
2021/03/01 03:47:48;;;;;;;36.30;21.35;;;76.80;2227.20;;;;;;5039411;28;20033;-72
2021/03/01 03:50:15;;;;;;;39.50;22.10;;;76.80;2227.20;;;;;;5032305;28;20068;-71
2021/03/01 03:52:46;;;;;;;51.45;28.10;;;76.80;2227.20;;;;;;5036424;28;20021;-71
2021/03/01 03:55:16;;;;;;;49.60;26.77;;;76.80;2227.20;;;;;;5041481;28;20032;-73
2021/03/01 03:57:51;;;;;;;59.10;31.98;;;76.80;2227.20;;;;;;5035379;28;20371;-72
2021/03/01 04:00:18;;;;;;;53.67;28.05;;;76.80;2227.20;;;;;;5034933;28;20025;-73
2021/03/01 04:02:45;;;;;;;61.03;32.05;;;52.10;2227.20;;;;;;5035161;28;20060;-71
2021/03/01 04:05:14;;;;;;;52.05;28.88;;;52.10;2227.20;;;;;;5035356;28;20112;-73
2021/03/01 04:07:43;;;;;;;43.03;24.63;;;52.10;2227.20;;;;;;5029445;28;20026;-73
2021/03/01 04:10:10;;;;;;;46.53;25.30;;;52.10;2227.20;;;;;;5035060;28;20064;-71
2021/03/01 04:12:38;;;;;;;41.28;24.63;;;52.10;2227.20;;;;;;5034813;28;20026;-73
2021/03/01 04:15:07;;;;;;;38.85;21.95;;;52.10;2227.20;;;;;;5034957;28;20043;-71
2021/03/01 04:17:36;;;;;;;41.58;22.85;;;52.10;2227.20;;;;;;5036314;28;20550;-72
2021/03/01 04:20:07;;;;;;;39.17;21.70;;;76.80;2227.20;;;;;;5034384;28;20029;-73
2021/03/01 04:22:34;;;;;;;46.28;23.35;;;76.80;2227.20;;;;;;5034828;28;20025;-73
2021/03/01 04:25:01;;;;;;;40.47;22.00;;;52.10;2227.20;;;;;;5034828;28;20371;-71
2021/03/01 04:27:28;;;;;;;46.97;22.33;;;52.10;2227.20;;;;;;5042214;28;20029;-71
2021/03/01 04:29:55;;;;;;;43.72;24.60;;;52.10;2227.20;;;;;;5040596;28;20033;-71
2021/03/01 04:32:21;;;;;;;38.63;23.73;;;52.10;2227.20;;;;;;5037082;28;20386;-71
2021/03/01 04:34:48;;;;;;;39.97;22.15;;;51.90;2227.20;;;;;;5040276;28;20075;-74
2021/03/01 04:37:14;;;;;;;39.63;21.05;;;52.00;2227.20;;;;;;5037834;28;20053;-73
2021/03/01 04:39:40;;;;;;;40.33;22.98;;;52.00;2227.20;;;;;;5037520;28;20064;-73
2021/03/01 04:42:06;;;;;;;45.40;23.85;;;52.00;2227.20;;;;;;5038968;28;20049;-73
2021/03/01 04:44:33;;;;;;;39.70;23.80;;;52.00;2227.20;;;;;;5040286;28;20029;-72
2021/03/01 04:47:00;;;;;;;37.83;22.23;;;52.00;2227.20;;;;;;5033437;28;20402;-71
2021/03/01 04:49:27;;;;;;;33.40;20.58;;;52.00;2227.20;;;;;;5033800;28;20069;-73
2021/03/01 04:51:54;;;;;;;32.50;19.38;;;51.90;2227.20;;;;;;5036380;28;20092;-73
2021/03/01 04:54:21;;;;;;;37.28;20.38;;;51.90;2227.20;;;;;;5027447;28;20091;-71
2021/03/01 04:56:48;;;;;;;34.72;19.98;;;51.90;2227.20;;;;;;5035961;28;20021;-73
2021/03/01 04:59:15;;;;;;;32.15;19.00;;;51.90;2227.20;;;;;;5033009;28;20033;-74
2021/03/01 05:01:47;;;;;;;32.47;19.67;;;51.90;2227.20;;;;;;5036364;28;20021;-69
2021/03/01 05:04:13;;;;;;;34.60;19.73;;;51.80;2227.20;;;;;;5043566;28;20034;-71
2021/03/01 05:06:40;;;;;;;34.35;19.13;;;51.80;2227.20;;;;;;5034195;28;20025;-72
2021/03/01 05:09:06;;;;;;;32.53;19.55;;;51.80;2227.20;;;;;;5045084;28;20459;-70
2021/03/01 05:11:36;;;;;;;32.65;21.50;;;51.70;2227.20;;;;;;5047562;28;20037;-71
2021/03/01 05:14:04;;;;;;;32.15;19.00;;;51.70;2227.20;;;;;;5035640;28;20036;-71
2021/03/01 05:16:30;;;;;;;35.65;21.17;;;51.80;2227.20;;;;;;5032371;28;20026;-71
2021/03/01 05:18:56;;;;;;;34.20;19.80;;;51.70;2227.20;;;;;;5033646;28;20048;-70
2021/03/01 05:21:23;;;;;;;28.00;19.15;;;51.70;2227.20;;;;;;5040566;28;20030;-71
2021/03/01 05:23:49;;;;;;;36.70;22.42;;;51.80;2227.20;;;;;;5030249;28;20021;-70
2021/03/01 05:26:16;;;;;;;49.55;24.83;;;51.70;2227.20;;;;;;5040509;28;20057;-71
2021/03/01 05:28:42;;;;;;;39.58;22.00;;;51.80;2227.20;;;;;;5043091;28;20021;-73
2021/03/01 05:31:08;;;;;;;47.78;23.67;;;51.80;2227.20;;;;;;5034739;28;20033;-69
2021/03/01 05:33:34;;;;;;;55.15;24.10;;;51.80;2227.20;;;;;;5036993;28;20028;-74
2021/03/01 05:36:00;;;;;;;47.95;22.17;;;51.90;2227.20;;;;;;5034222;28;20034;-70
2021/03/01 05:38:26;;;;;;;39.88;21.48;;;52.00;2227.20;;;;;;5015890;28;20479;-70
2021/03/01 05:40:52;;;;;;;43.67;22.80;;;52.00;2227.20;;;;;;5016178;28;20044;-71
2021/03/01 05:43:21;;;;;;;39.78;20.33;;;52.10;2227.20;;;;;;5034847;28;20493;-73
2021/03/01 05:45:48;;;;;;;39.00;21.20;;;52.10;2227.20;;;;;;5032653;28;20025;-72
2021/03/01 05:48:14;;;;;;;34.78;19.40;;;76.80;2227.20;;;;;;5015067;28;20061;-72
2021/03/01 05:50:42;;;;;;;32.45;19.17;;;76.90;2227.20;;;;;;5022382;28;20042;-73
2021/03/01 05:53:15;;;;;;;30.85;19.38;;;77.20;2227.20;;;;;;5019605;28;20487;-73
2021/03/01 05:55:41;;;;;;;38.10;21.10;;;77.00;2227.20;;;;;;5007956;28;20030;-75
2021/03/01 05:58:08;;;;;;;41.15;18.83;;;77.10;2227.20;;;;;;5022172;28;20121;-74
2021/03/01 06:00:35;;;;;;;35.78;18.38;;;77.20;2227.20;;;;;;5017388;28;20026;-75
2021/03/01 06:03:01;;;;;;;34.70;19.02;;;77.30;2227.20;;;;;;5015898;28;20025;-74
2021/03/01 06:05:27;;;;;;;39.15;19.77;;;77.30;2227.20;;;;;;5019770;28;20025;-74
2021/03/01 06:07:56;;;;;;;35.97;18.73;;;77.40;2227.20;;;;;;5027464;28;20831;-75
2021/03/01 06:10:23;;;;;;;30.08;17.63;;;77.50;2227.20;;;;;;5045331;28;21757;-74
2021/03/01 06:12:49;;;;;;;30.27;17.65;;;77.70;2227.20;;;;;;5037201;28;20124;-74
2021/03/01 06:15:15;;;;;;;28.25;17.83;;;77.60;2227.20;;;;;;5036808;28;20109;-73
2021/03/01 06:17:41;;;;;;;55.17;27.38;;;77.70;2227.20;;;;;;5041378;28;20061;-74
2021/03/01 06:20:10;;;;;;;44.45;24.05;;;102.60;2227.20;;;;;;5033943;28;20067;-70
2021/03/01 06:22:43;;;;;;;32.60;19.02;;;103.00;2227.20;;;;;;5035801;28;20023;-78
2021/03/01 06:25:16;;;;;;;33.28;19.13;;;128.50;2201.60;;;;;;5033935;28;20033;-78
2021/03/01 06:28:02;;;;;;;30.58;18.35;;;153.70;2150.40;;;;;;5047760;28;20104;-75
2021/03/01 06:30:30;;;;;;;31.30;18.00;;;179.30;2227.20;;;;;;5049220;28;20063;-78
2021/03/01 06:33:03;;;;;;;28.65;15.63;;;204.90;1868.80;;;;;;5050972;28;20075;-75
2021/03/01 06:35:52;;;;;;;27.73;16.33;;;230.40;1766.40;;;;;;5038100;28;20031;-73
2021/03/01 06:38:31;;;;;;;28.98;16.25;;;231.00;1638.40;;;;;;5043299;28;20037;-70
2021/03/01 06:41:18;;;;;;;30.02;16.02;;;256.70;1561.60;;;;;;5027102;28;20037;-69
2021/03/01 06:44:02;;;;;;;21.30;14.90;;;282.20;1459.20;;;;;;5028342;28;20026;-70
2021/03/01 06:46:33;;;;;;;20.73;13.98;;;307.80;1459.20;;;;;;5046994;23;20582;-76
2021/03/01 06:49:15;;;;;;;21.38;14.90;;;308.00;1382.40;;;;;;5031538;28;20036;-74
2021/03/01 06:51:42;;;;;;;21.25;14.80;;;;;;;;;;5049653;28;20033;-72
2021/03/01 06:54:08;;;;;;;26.90;16.63;;;;;;;;;;5051951;28;20065;-76
2021/03/01 06:56:41;;;;;;;20.77;14.88;;;;;;;;;;5049682;28;20029;-79
2021/03/01 06:59:14;;;;;;;22.13;15.07;;;;;;;;;;5059082;28;20021;-73
2021/03/01 07:01:44;;;;;;;22.67;15.35;;;;;;;;;;5028818;28;20079;-75
2021/03/01 07:04:17;;;;;;;26.08;14.63;;;;;;;;;;5025888;28;20104;-76
2021/03/01 07:06:43;;;;;;;;;;;;;;;;;;5031549;28;20104;-71
2021/03/01 07:09:17;;;;;;;23.40;15.82;;;;;;;;;;5023019;28;20004;-76
2021/03/01 07:11:43;;;;;;;;;;;;;;;;;;5023415;28;20573;-70
2021/03/01 07:14:16;;;;;;;25.23;16.80;;;;;;;;;;5022650;28;19956;-70
2021/03/01 07:16:47;;;;;;;27.65;19.30;;;;;;;;;;5018894;28;20032;-69
2021/03/01 07:19:13;;;;;;;20.50;14.98;;;;;;;;;;5021274;28;20037;-73
2021/03/01 07:21:40;;;;;;;29.80;21.35;;;;;;;;;;5020859;28;20379;-72
2021/03/01 07:24:06;;;;;;;32.33;21.23;;;;;;;;;;5023004;28;20136;-72
2021/03/01 07:26:33;;;;;;;29.17;19.85;;;;;;;;;;5031536;28;20056;-71
2021/03/01 07:29:05;;;;;;;26.92;18.30;;;;;;;;;;5030413;28;20132;-73
2021/03/01 07:31:33;;;;;;;86.22;56.50;;;;;;;;;;5027937;28;20484;-71
2021/03/01 07:33:59;;;;;;;37.10;27.80;;;;;;;;;;5030850;28;20040;-71
2021/03/01 07:36:26;;;;;;;34.17;24.58;;;;;;;;;;5039207;28;20055;-77
2021/03/01 07:38:52;;;;;;;46.90;36.75;;;;;;;;;;5042279;28;20032;-76
2021/03/01 07:41:18;;;;;;;26.33;19.98;;;;;;;;;;5036084;28;20386;-73
2021/03/01 07:43:45;;;;;;;35.10;26.55;;;;;;;;;;5031203;28;20053;-72
2021/03/01 07:46:11;;;;;;;28.10;20.65;;;;;;;;;;5045007;28;20049;-71
2021/03/01 07:48:38;;;;;;;25.75;20.27;;;;;;;;;;5050263;28;20052;-72
2021/03/01 07:51:05;;;;;;;26.63;18.42;;;;;;;;;;5042210;28;20045;-71
2021/03/01 07:53:49;;;;;;;29.85;17.95;;;;;;;;;;5051309;28;20029;-72
2021/03/01 07:56:24;;;;;;;24.95;17.02;;;;;;;;;;5048843;28;20075;-72
2021/03/01 07:59:03;;;;;;;28.15;16.67;;;;;;;;;;5050480;28;20383;-71
2021/03/01 08:01:30;;;;;;;33.58;20.88;;;;;;;;;;5045837;28;20028;-71
2021/03/01 08:03:56;;;;;;;24.90;16.77;;;;;;;;;;5033175;28;20032;-71
2021/03/01 08:06:23;;;;;;;28.05;14.85;;;;;;;;;;5050977;28;20071;-71
2021/03/01 08:08:49;;;;;;;35.90;18.02;;;;;;;;;;5049176;28;20024;-71
2021/03/01 08:11:16;;;;;;;34.75;20.15;;;;;;;;;;5030568;28;20056;-71
2021/03/01 08:13:42;;;;;;;22.30;16.55;;;;;;;;;;5026062;28;20120;-72
2021/03/01 08:16:28;;;;;;;26.08;18.50;;;;;;;;;;5049569;28;20500;-71
2021/03/01 08:18:58;;;;;;;17.17;14.13;;;;;;;;;;5039167;28;20108;-71
2021/03/01 08:21:27;;;;;;;24.17;14.40;;;;;;;;;;5050716;28;20017;-71
2021/03/01 08:23:53;;;;;;;26.63;14.43;;;;;;;;;;5050713;28;20430;-71
2021/03/01 08:26:29;;;;;;;19.55;13.85;;;;;;;;;;5049998;28;20079;-71
2021/03/01 08:28:56;;;;;;;26.67;14.27;;;;;;;;;;5046950;28;20025;-70
2021/03/01 08:31:24;;;;;;;20.83;14.50;;;;;;;;;;5053558;28;20028;-71
2021/03/01 08:33:50;;;;;;;17.77;14.48;;;;;;;;;;5052549;28;20431;-71
2021/03/01 08:36:16;;;;;;;21.73;14.15;;;;;;;;;;5057203;28;20037;-74
2021/03/01 08:38:53;;;;;;;22.20;14.73;;;;;;;;;;5058860;28;20364;-73
2021/03/01 08:41:39;;;;;;;24.75;14.55;;;;;;;;;;5053919;28;20135;-71
2021/03/01 08:44:26;;;;;;;20.33;14.23;;;;;;;;;;5054439;28;20489;-72
2021/03/01 08:47:01;;;;;;;21.45;14.23;;;;;;;;;;5049125;28;20052;-73
2021/03/01 08:49:27;;;;;;;19.52;12.98;;;;;;;;;;5042200;28;20091;-73
2021/03/01 08:51:54;;;;;;;20.70;15.60;;;;;;;;;;5045509;28;20104;-70
2021/03/01 08:54:30;;;;;;;23.75;14.55;;;;;;;;;;5029086;28;20037;-73
2021/03/01 08:57:06;;;;;;;17.67;13.60;;;;;;;;;;5043575;28;20025;-72
2021/03/01 08:59:33;;;;;;;19.33;13.63;;;;;;;;;;5039637;28;20057;-75
2021/03/01 09:01:59;;;;;;;23.02;14.55;;;;;;;;;;5037564;28;20021;-70
2021/03/01 09:04:25;;;;;;;28.48;18.42;;;;;;;;;;5039234;28;20040;-70
2021/03/01 09:06:51;;;;;;;25.30;16.23;;;;;;;;;;5038166;28;20502;-70
2021/03/01 09:09:17;;;;;;;27.05;14.80;;;;;;;;;;5038867;28;20026;-71
2021/03/01 09:11:43;;;;;;;22.95;14.35;;;;;;;;;;5040172;28;20025;-73
2021/03/01 09:14:09;;;;;;;21.77;14.95;;;281.80;1382.40;;;;;;5044243;28;20033;-71
2021/03/01 09:16:40;;;;;;;26.70;18.00;;;256.90;1382.40;;;;;;5049887;28;20035;-71
2021/03/01 09:19:10;;;;;;;23.40;15.68;;;256.90;1408.00;;;;;;5051038;28;20470;-72
2021/03/01 09:21:40;;;;;;;29.80;18.75;;;256.70;1433.60;;;;;;5053156;28;20070;-75
2021/03/01 09:24:10;;;;;;;31.60;19.50;;;256.60;1459.20;;;;;;5052435;28;20056;-73
2021/03/01 09:26:39;;;;;;;24.33;15.25;;;256.60;1459.20;;;;;;5045992;28;20021;-71
2021/03/01 09:29:11;;;;;;;39.22;21.77;;;256.50;1433.60;;;;;;5052795;28;20025;-72
2021/03/01 09:31:44;;;;;;;27.80;16.90;;;256.50;1459.20;;;;;;5052799;28;20028;-72
2021/03/01 09:34:14;;;;;;;24.80;17.45;;;256.20;1484.80;;;;;;5053301;28;20040;-74
2021/03/01 09:36:41;;;;;;;24.15;15.77;;;256.20;1510.40;;;;;;5048431;28;20037;-71
2021/03/01 09:39:08;;;;;;;33.28;16.88;;;256.20;1510.40;;;;;;5046558;28;20530;-71
2021/03/01 09:41:38;;;;;;;23.42;16.52;;;256.20;1536.00;;;;;;5049649;28;20364;-73
2021/03/01 09:44:05;;;;;;;22.55;15.25;;;256.20;1536.00;;;;;;5045937;28;20025;-67
2021/03/01 09:46:31;;;;;;;29.55;15.75;;;256.10;1536.00;;;;;;5046660;28;20045;-76
2021/03/01 09:49:01;;;;;;;25.80;17.40;;;256.00;1536.00;;;;;;5052290;28;20040;-71
2021/03/01 09:51:28;;;;;;;32.65;18.55;;;256.00;1536.00;;;;;;5052754;28;20040;-71
2021/03/01 09:54:07;;;;;;;25.35;18.42;;;256.10;1561.60;;;;;;5052272;28;20024;-74
2021/03/01 09:56:39;;;;;;;24.52;16.08;;;256.10;1561.60;;;;;;5052590;28;20036;-73
2021/03/01 09:59:05;;;;;;;27.33;16.73;;;256.10;1561.60;;;;;;5045664;28;20032;-71
2021/03/01 10:01:30;;;;;;;22.63;16.02;;;231.30;1561.60;;;;;;5043420;28;20021;-72
2021/03/01 10:03:56;;;;;;;24.08;16.15;;;231.20;1587.20;;;;;;5038762;28;20028;-70
2021/03/01 10:06:33;;;;;;;35.75;23.17;;;231.20;1587.20;;;;;;5048939;28;20070;-71
2021/03/01 10:09:10;;;;;;;31.77;19.55;;;231.30;1587.20;;;;;;5045061;28;20036;-72
2021/03/01 10:11:37;;;;;;;31.67;21.17;;;231.30;1587.20;;;;;;5052115;28;20502;-70
2021/03/01 10:14:10;;;;;;;25.83;18.33;;;231.20;1612.80;;;;;;5051965;28;20056;-73
2021/03/01 10:16:39;;;;;;;32.60;18.05;;;231.20;1612.80;;;;;;5048763;28;20501;-71
2021/03/01 10:19:15;;;;;;;25.63;15.73;;;231.30;1612.80;;;;;;5050744;28;20029;-74
2021/03/01 10:21:42;;;;;;;25.55;16.92;;;256.00;1587.20;;;;;;5032112;28;20017;-70
2021/03/01 10:24:12;;;;;;;25.63;16.58;;;256.00;1587.20;;;;;;5051671;28;20108;-77
2021/03/01 10:26:57;;;;;;;27.20;16.67;;;256.00;1587.20;;;;;;5051109;28;20079;-70
2021/03/01 10:29:34;;;;;;;26.88;15.48;;;256.10;1612.80;;;;;;5041510;28;20037;-73
2021/03/01 10:32:01;;;;;;;24.63;15.95;;;256.10;1561.60;;;;;;5051059;28;20421;-71
2021/03/01 10:34:37;;;;;;;22.60;14.75;;;256.10;1587.20;;;;;;5051068;28;20021;-70
2021/03/01 10:37:08;;;;;;;22.48;14.70;;;256.10;1612.80;;;;;;5046518;28;20112;-72
2021/03/01 10:39:39;;;;;;;27.48;15.40;;;256.10;1587.20;;;;;;5043337;28;20087;-71
2021/03/01 10:42:13;;;;;;;23.52;14.60;;;256.20;1587.20;;;;;;5047221;28;20517;-71
2021/03/01 10:44:41;;;;;;;26.67;15.30;;;256.20;1587.20;;;;;;5050696;28;20040;-76
2021/03/01 10:47:13;;;;;;;21.27;14.63;;;256.30;1612.80;;;;;;5050253;28;20037;-72
2021/03/01 10:49:39;;;;;;;28.60;15.00;;;256.40;1587.20;;;;;;5026757;28;20451;-71
2021/03/01 10:52:08;;;;;;;22.88;14.27;;;256.20;1638.40;;;;;;5048589;28;20118;-71
2021/03/01 10:54:35;;;;;;;24.92;15.68;;;256.30;1587.20;;;;;;5049744;28;20044;-71
2021/03/01 10:57:00;;;;;;;23.52;14.40;;;256.30;1587.20;;;;;;5048488;28;20021;-71
2021/03/01 10:59:26;;;;;;;20.25;14.43;;;256.30;1561.60;;;;;;5045214;28;20036;-70
2021/03/01 11:01:52;;;;;;;22.52;14.90;;;256.00;1587.20;;;;;;5050870;28;20080;-73
2021/03/01 11:04:18;;;;;;;23.10;13.80;;;256.40;1587.20;;;;;;5048907;28;20475;-75
2021/03/01 11:06:48;;;;;;;20.63;14.20;;;256.40;1587.20;;;;;;5049536;28;20056;-71
2021/03/01 11:09:14;;;;;;;26.48;15.45;;;256.50;1587.20;;;;;;5040415;28;20036;-71
2021/03/01 11:11:41;;;;;;;27.88;16.42;;;256.60;1587.20;;;;;;5051403;28;20490;-71
2021/03/01 11:14:08;;;;;;;23.13;15.25;;;256.50;1561.60;;;;;;5055525;28;20037;-73
2021/03/01 11:16:34;;;;;;;25.13;15.52;;;256.30;1536.00;;;;;;5054045;28;20020;-74
2021/03/01 11:18:59;;;;;;;23.27;15.57;;;256.70;1561.60;;;;;;5049677;28;20024;-72
2021/03/01 11:21:25;;;;;;;22.67;15.77;;;256.80;1561.60;;;;;;5049587;28;20036;-76
2021/03/01 11:23:51;;;;;;;24.83;15.98;;;256.70;1561.60;;;;;;5049679;28;20497;-71
2021/03/01 11:26:17;;;;;;;27.08;15.88;;;256.60;1536.00;;;;;;5041803;28;20086;-73
2021/03/01 11:28:43;;;;;;;25.95;15.95;;;256.60;1536.00;;;;;;5050255;28;20021;-71
2021/03/01 11:31:10;;;;;;;25.02;15.50;;;256.70;1561.60;;;;;;5053368;28;20383;-71
2021/03/01 11:33:38;;;;;;;24.63;15.60;;;256.40;1536.00;;;;;;5045888;28;20041;-76
2021/03/01 11:36:03;;;;;;;24.83;15.73;;;256.80;1536.00;;;;;;5050246;28;20024;-72
2021/03/01 11:38:30;;;;;;;24.30;15.73;;;256.90;1561.60;;;;;;5057007;28;20433;-70
2021/03/01 11:40:57;;;;;;;26.67;15.60;;;256.90;1536.00;;;;;;5052567;28;20438;-76
2021/03/01 11:43:24;;;;;;;25.30;15.90;;;256.90;1510.40;;;;;;5050184;28;20064;-73
2021/03/01 11:45:50;;;;;;;23.45;16.35;;;256.90;1510.40;;;;;;5049716;28;20580;-72
2021/03/01 11:48:16;;;;;;;25.73;15.60;;;256.90;1510.40;;;;;;5049794;28;20033;-74
2021/03/01 11:50:43;;;;;;;29.92;15.88;;;256.90;1561.60;;;;;;5032364;28;20482;-72
2021/03/01 11:53:10;;;;;;;24.02;15.40;;;256.90;1510.40;;;;;;5048727;28;20028;-74
2021/03/01 11:55:37;;;;;;;25.25;16.23;;;281.60;1536.00;;;;;;5051573;28;20095;-73
2021/03/01 11:58:03;;;;;;;22.38;15.48;;;281.60;1536.00;;;;;;5032099;28;20021;-73
2021/03/01 12:00:29;;;;;;;22.45;14.85;;;281.60;1484.80;;;;;;5039590;28;20033;-73
2021/03/01 12:02:54;;;;;;;21.95;14.95;;;281.60;1510.40;;;;;;5050721;28;20025;-72
2021/03/01 12:05:20;;;;;;;20.92;14.10;;;281.60;1510.40;;;;;;5049782;28;20043;-73
2021/03/01 12:07:46;;;;;;;21.48;14.90;;;;;;;;;;5031393;28;20025;-77
2021/03/01 12:10:12;;;;;;;30.05;16.67;;;;;;;;;;5044138;28;20440;-74
2021/03/01 12:12:38;;;;;;;24.85;15.27;;;;;;;;;;5051238;28;20021;-78
2021/03/01 12:15:09;;;;;;;22.67;15.77;;;;;;;;;;5056537;28;20025;-71
2021/03/01 12:17:35;;;;;;;23.58;16.25;;;;;;;;;;5052687;28;20103;-71
2021/03/01 12:20:02;;;;;;;23.80;15.63;;;;;;;;;;5054869;28;20086;-72
2021/03/01 12:22:28;;;;;;;21.55;14.60;;;;;;;;;;5053827;28;20021;-71
2021/03/01 12:24:54;;;;;;;21.38;14.27;;;;;;;;;;5054403;28;20116;-71
2021/03/01 12:27:20;;;;;;;23.70;14.48;;;;;;;;;;5054561;28;20021;-71
2021/03/01 12:29:46;;;;;;;21.02;13.40;;;;;;;;;;5052462;28;20091;-72
2021/03/01 12:32:12;;;;;;;22.52;14.57;;;;;;;;;;5054455;28;20469;-72
2021/03/01 12:34:41;;;;;;;25.35;16.20;;;;;;;;;;5035605;28;20468;-73
2021/03/01 12:37:07;;;;;;;20.60;14.55;;;;;;;;;;5053744;28;20454;-72
2021/03/01 12:39:36;;;;;;;27.13;15.32;;;;;;;;;;5053577;28;20033;-74
2021/03/01 12:42:02;;;;;;;24.90;14.98;;;;;;;;;;5058765;28;20028;-71
2021/03/01 12:44:28;;;;;;;26.30;15.10;;;;;;;;;;5054201;28;20059;-69
2021/03/01 12:46:55;;;;;;;23.20;15.18;;;;;;;;;;5061339;28;20029;-71
2021/03/01 12:49:21;;;;;;;23.00;14.82;;;;;;;;;;5053034;28;20028;-72